Terminal Aerodrome Forecast
Issued by NWS Amarillo, TX

Home | Current Version | Previous Version | Text Only | Print | Product List | Glossary On
Versions: 1 2 3 4 5 6 7 8 9 10 11 12 13
000
FTUS44 KAMA 202300 RRA
TAFGUY
TAF
KGUY 202342Z 2100/2124 VRB04KT P6SM FEW060
     FM210800 04010KT P6SM VCTS SCT015CB BKN035
     FM211500 08016KT P6SM SCT050=

USA.gov is the U.S. government's official web portal to all federal, state and local government web resources and services.